createdAt,value
2023-05-19T00:00:55.371Z,2.70
2023-05-19T00:03:22.214Z,2.60
2023-05-19T00:05:48.883Z,2.50
2023-05-19T00:08:18.919Z,2.60
2023-05-19T00:10:45.727Z,2.50
2023-05-19T00:13:12.539Z,2.65
2023-05-19T00:15:40.123Z,2.75
2023-05-19T00:18:08.925Z,2.90
2023-05-19T00:20:35.492Z,2.40
2023-05-19T00:23:02.017Z,2.50
2023-05-19T00:25:28.485Z,2.50
2023-05-19T00:27:54.958Z,2.67
2023-05-19T00:30:22.847Z,2.53
2023-05-19T00:32:49.470Z,2.70
2023-05-19T00:35:16.781Z,2.75
2023-05-19T00:37:43.188Z,2.60
2023-05-19T00:40:10.734Z,2.85
2023-05-19T00:42:37.289Z,2.30
2023-05-19T00:45:04.101Z,2.70
2023-05-19T00:47:30.961Z,2.30
2023-05-19T00:49:57.404Z,2.60
2023-05-19T00:52:23.802Z,2.35
2023-05-19T00:54:51.813Z,2.28
2023-05-19T00:57:18.899Z,2.30
2023-05-19T00:59:45.443Z,2.50
2023-05-19T01:02:11.826Z,2.33
2023-05-19T01:04:41.837Z,2.30
2023-05-19T01:07:08.384Z,2.42
2023-05-19T01:09:34.841Z,2.75
2023-05-19T01:12:01.564Z,1.92
2023-05-19T01:14:29.475Z,2.50
2023-05-19T01:17:20.683Z,2.50
2023-05-19T01:19:57.484Z,2.40
2023-05-19T01:22:47.141Z,2.70
2023-05-19T01:25:33.386Z,3.63
2023-05-19T01:28:22.260Z,3.30
2023-05-19T01:30:56.071Z,3.30
2023-05-19T01:33:24.558Z,4.05
2023-05-19T01:35:53.140Z,3.50
2023-05-19T01:38:20.779Z,3.70
2023-05-19T01:40:47.803Z,3.20
2023-05-19T01:43:17.808Z,3.22
2023-05-19T01:45:45.101Z,3.28
2023-05-19T01:48:13.340Z,3.08
2023-05-19T01:50:40.716Z,3.40
2023-05-19T01:53:07.330Z,3.30
2023-05-19T01:55:36.182Z,3.15
2023-05-19T01:58:28.496Z,3.60
2023-05-19T02:01:33.823Z,3.40
2023-05-19T02:04:28.116Z,3.60
2023-05-19T02:07:09.701Z,3.42
2023-05-19T02:09:48.039Z,3.63
2023-05-19T02:12:31.853Z,3.90
2023-05-19T02:15:16.859Z,3.83
2023-05-19T02:17:51.733Z,4.05
2023-05-19T02:20:18.438Z,3.72
2023-05-19T02:22:45.226Z,4.03
2023-05-19T02:25:11.940Z,3.80
2023-05-19T02:27:39.474Z,3.72
2023-05-19T02:30:08.380Z,3.97
2023-05-19T02:32:35.221Z,3.78
2023-05-19T02:35:02.532Z,4.05
2023-05-19T02:37:29.229Z,3.72
2023-05-19T02:39:55.998Z,3.80
2023-05-19T02:42:22.478Z,4.05
2023-05-19T02:44:49.400Z,4.10
2023-05-19T02:47:16.154Z,3.90
2023-05-19T02:49:44.074Z,3.72
2023-05-19T02:52:10.607Z,3.78
2023-05-19T02:54:37.086Z,3.35
2023-05-19T02:57:03.614Z,3.88
2023-05-19T02:59:30.145Z,3.67
2023-05-19T03:02:02.862Z,4.00
2023-05-19T03:04:29.882Z,4.20
2023-05-19T03:06:57.388Z,4.10
2023-05-19T03:09:23.943Z,3.80
2023-05-19T03:11:50.491Z,3.78
2023-05-19T03:14:18.528Z,3.80
2023-05-19T03:16:45.254Z,3.92
2023-05-19T03:19:12.064Z,3.80
2023-05-19T03:21:38.463Z,3.30
2023-05-19T03:24:05.173Z,3.50
2023-05-19T03:26:31.599Z,3.10
2023-05-19T03:28:58.003Z,3.55
2023-05-19T03:31:24.443Z,3.92
2023-05-19T03:33:50.913Z,3.60
2023-05-19T03:36:17.543Z,3.20
2023-05-19T03:38:43.952Z,3.45
2023-05-19T03:41:10.462Z,4.07
2023-05-19T03:43:36.904Z,3.58
2023-05-19T03:46:03.444Z,3.50
2023-05-19T03:48:29.971Z,3.55
2023-05-19T03:50:56.376Z,3.47
2023-05-19T03:53:22.878Z,4.32
2023-05-19T03:55:50.591Z,3.75
2023-05-19T03:58:17.041Z,4.43
2023-05-19T04:00:43.782Z,3.60
2023-05-19T04:03:10.473Z,3.20
2023-05-19T04:05:37.124Z,5.18
2023-05-19T04:08:03.624Z,12.55
2023-05-19T04:10:30.273Z,4.10
2023-05-19T04:12:57.165Z,3.70
2023-05-19T04:15:23.606Z,3.65
2023-05-19T04:17:50.056Z,3.35
2023-05-19T04:20:16.505Z,3.38
2023-05-19T04:22:42.916Z,3.55
2023-05-19T04:25:09.673Z,3.60
2023-05-19T04:27:39.157Z,3.58
2023-05-19T04:30:06.540Z,3.67
2023-05-19T04:32:33.112Z,3.40
2023-05-19T04:34:59.629Z,3.53
2023-05-19T04:37:26.662Z,3.72
2023-05-19T04:39:54.162Z,3.40
2023-05-19T04:42:20.609Z,3.40
2023-05-19T04:44:49.273Z,3.60
2023-05-19T04:47:15.905Z,3.35
2023-05-19T04:49:42.999Z,3.70
2023-05-19T04:52:11.107Z,3.60
2023-05-19T04:54:38.691Z,3.90
2023-05-19T04:57:05.793Z,3.70
2023-05-19T04:59:32.337Z,3.42
2023-05-19T05:01:58.885Z,3.60
2023-05-19T05:04:25.982Z,3.70
2023-05-19T05:06:52.405Z,3.72
2023-05-19T05:09:19.850Z,3.25
2023-05-19T05:11:46.710Z,3.70
2023-05-19T05:14:13.398Z,3.50
2023-05-19T05:16:40.112Z,3.40
2023-05-19T05:19:06.826Z,3.22
2023-05-19T05:21:33.487Z,3.40
2023-05-19T05:24:00.174Z,3.33
2023-05-19T05:26:31.008Z,3.15
2023-05-19T05:28:57.418Z,3.10
2023-05-19T05:31:23.831Z,3.33
2023-05-19T05:33:50.406Z,3.17
2023-05-19T05:36:16.949Z,3.03
2023-05-19T05:38:43.428Z,3.28
2023-05-19T05:41:09.840Z,3.00
2023-05-19T05:43:36.237Z,3.00
2023-05-19T05:46:02.790Z,3.15
2023-05-19T05:48:29.484Z,2.97
2023-05-19T05:50:57.540Z,3.03
2023-05-19T05:53:25.580Z,3.28
2023-05-19T05:55:53.508Z,3.20
2023-05-19T05:58:21.198Z,3.10
2023-05-19T06:00:49.255Z,3.08
2023-05-19T06:03:16.910Z,3.72
2023-05-19T06:05:43.577Z,3.33
2023-05-19T06:08:10.013Z,3.60
2023-05-19T06:10:38.703Z,3.20
2023-05-19T06:13:05.231Z,4.45
2023-05-19T06:15:31.771Z,3.13
2023-05-19T06:17:58.958Z,3.55
2023-05-19T06:20:25.426Z,3.20
2023-05-19T06:22:51.820Z,3.17
2023-05-19T06:25:18.263Z,3.40
2023-05-19T06:27:44.818Z,3.08
2023-05-19T06:30:12.423Z,3.20
2023-05-19T06:32:39.067Z,3.60
2023-05-19T06:35:05.873Z,3.47
2023-05-19T06:37:32.262Z,3.85
2023-05-19T06:39:58.788Z,3.92
2023-05-19T06:42:25.458Z,3.50
2023-05-19T06:44:52.878Z,3.53
2023-05-19T06:47:19.580Z,3.08
2023-05-19T06:49:46.434Z,2.92
2023-05-19T06:52:13.114Z,2.95
2023-05-19T06:54:39.710Z,3.33
2023-05-19T06:57:06.424Z,2.92
2023-05-19T06:59:32.860Z,3.10
2023-05-19T07:01:59.489Z,3.00
2023-05-19T07:04:26.090Z,3.20
2023-05-19T07:06:53.402Z,3.15
2023-05-19T07:09:19.824Z,3.28
2023-05-19T07:11:46.600Z,3.40
2023-05-19T07:14:13.034Z,5.22
2023-05-19T07:16:39.615Z,6.00
2023-05-19T07:19:06.139Z,3.90
2023-05-19T07:21:32.625Z,3.40
2023-05-19T07:23:59.107Z,3.13
2023-05-19T07:26:26.321Z,3.08
2023-05-19T07:28:52.961Z,3.60
2023-05-19T07:31:19.567Z,3.28
2023-05-19T07:33:46.093Z,3.20
2023-05-19T07:36:12.637Z,4.03
2023-05-19T07:38:39.074Z,4.10
2023-05-19T07:41:05.534Z,4.20
2023-05-19T07:43:32.004Z,3.13
2023-05-19T07:45:58.443Z,3.50
2023-05-19T07:48:25.853Z,5.05
2023-05-19T07:50:52.707Z,21.88
2023-05-19T07:53:19.897Z,3.20
2023-05-19T07:55:46.439Z,3.53
2023-05-19T07:58:12.860Z,3.60
2023-05-19T08:00:39.404Z,4.30
2023-05-19T08:03:06.002Z,3.65
2023-05-19T08:05:32.550Z,3.40
2023-05-19T08:07:58.962Z,3.03
2023-05-19T08:10:25.561Z,2.95
2023-05-19T08:12:52.174Z,2.47
2023-05-19T08:15:19.554Z,2.20
2023-05-19T08:17:46.091Z,2.40
2023-05-19T08:20:12.702Z,2.47
2023-05-19T08:22:39.565Z,2.50
2023-05-19T08:25:07.208Z,2.60
2023-05-19T08:27:33.682Z,2.58
2023-05-19T08:30:00.248Z,2.47
2023-05-19T08:32:26.864Z,3.00
2023-05-19T08:34:53.579Z,2.80
2023-05-19T08:37:20.056Z,3.88
2023-05-19T08:39:46.701Z,3.20
2023-05-19T08:42:13.091Z,3.05
2023-05-19T08:44:40.149Z,3.20
2023-05-19T08:47:12.650Z,2.72
2023-05-19T08:49:45.182Z,3.20
2023-05-19T08:52:14.321Z,2.97
2023-05-19T08:54:50.826Z,3.17
2023-05-19T08:57:17.478Z,2.80
2023-05-19T08:59:44.294Z,2.97
2023-05-19T09:02:12.942Z,3.00
2023-05-19T09:04:40.379Z,6.72
2023-05-19T09:07:07.458Z,3.70
2023-05-19T09:09:33.918Z,2.90
2023-05-19T09:12:00.865Z,3.10
2023-05-19T09:14:27.396Z,3.13
2023-05-19T09:16:54.035Z,3.10
2023-05-19T09:19:21.274Z,2.80
2023-05-19T09:21:59.482Z,3.45
2023-05-19T09:24:26.973Z,2.90
2023-05-19T09:26:57.061Z,3.00
2023-05-19T09:29:25.051Z,2.63
2023-05-19T09:31:54.341Z,2.38
2023-05-19T09:34:22.532Z,2.20
2023-05-19T09:36:53.283Z,2.25
2023-05-19T09:39:21.543Z,1.98
2023-05-19T09:41:51.586Z,2.83
2023-05-19T09:44:23.412Z,2.22
2023-05-19T09:46:53.758Z,3.25
2023-05-19T09:49:21.892Z,3.80
2023-05-19T09:51:57.919Z,4.10
2023-05-19T09:54:25.537Z,2.35
2023-05-19T09:56:58.701Z,2.60
2023-05-19T09:59:26.290Z,2.30
2023-05-19T10:02:00.722Z,2.35
2023-05-19T10:04:29.417Z,2.33
2023-05-19T10:06:59.608Z,2.40
2023-05-19T10:09:28.725Z,2.45
2023-05-19T10:11:57.137Z,2.30
2023-05-19T10:14:25.265Z,2.72
2023-05-19T10:16:52.895Z,3.00
2023-05-19T10:19:24.255Z,2.53
2023-05-19T10:21:51.251Z,2.78
2023-05-19T10:24:18.735Z,2.40
2023-05-19T10:27:11.943Z,2.13
2023-05-19T10:29:45.048Z,2.58
2023-05-19T10:32:16.747Z,2.30
2023-05-19T10:35:15.607Z,2.65
2023-05-19T10:38:12.710Z,5.00
2023-05-19T10:40:51.701Z,2.15
2023-05-19T10:43:37.110Z,2.20
2023-05-19T10:46:04.415Z,2.60
2023-05-19T10:48:33.850Z,2.10
2023-05-19T10:51:00.901Z,2.30
2023-05-19T10:53:34.897Z,2.28
2023-05-19T10:56:06.993Z,2.63
2023-05-19T10:58:50.204Z,2.10
2023-05-19T11:01:20.922Z,2.50
2023-05-19T11:03:49.311Z,2.58
2023-05-19T11:06:19.742Z,2.40
2023-05-19T11:08:47.857Z,2.38
2023-05-19T11:11:16.643Z,2.55
2023-05-19T11:13:48.007Z,2.17
2023-05-19T11:16:14.887Z,2.30
2023-05-19T11:18:41.404Z,2.42
2023-05-19T11:21:08.171Z,2.33
2023-05-19T11:23:39.244Z,2.28
2023-05-19T11:26:08.503Z,2.40
2023-05-19T11:28:35.310Z,2.30
2023-05-19T11:31:02.859Z,2.20
2023-05-19T11:33:30.025Z,1.88
2023-05-19T11:35:59.818Z,2.20
2023-05-19T11:38:28.588Z,2.20
2023-05-19T11:40:56.521Z,2.20
2023-05-19T11:43:24.652Z,2.00
2023-05-19T11:45:51.446Z,2.13
2023-05-19T11:48:21.080Z,2.05
2023-05-19T11:50:47.678Z,2.33
2023-05-19T11:53:15.276Z,2.00
2023-05-19T11:55:44.313Z,2.00
2023-05-19T12:00:40.885Z,2.30
2023-05-19T12:03:08.698Z,2.03
2023-05-19T12:05:44.879Z,2.65
2023-05-19T12:08:12.380Z,3.00
2023-05-19T12:10:39.656Z,2.33
2023-05-19T12:13:09.523Z,2.53
2023-05-19T12:15:37.262Z,2.08
2023-05-19T12:18:03.867Z,2.20
2023-05-19T12:20:32.454Z,9.93
2023-05-19T12:23:00.553Z,2.53
2023-05-19T12:25:28.391Z,1.98
2023-05-19T12:27:59.234Z,2.40
2023-05-19T12:30:30.700Z,2.20
2023-05-19T12:32:57.955Z,2.65
2023-05-19T12:35:29.973Z,2.50
2023-05-19T12:37:56.467Z,2.55
2023-05-19T12:40:23.181Z,2.20
2023-05-19T12:42:53.313Z,2.40
2023-05-19T12:45:22.233Z,2.17
2023-05-19T12:47:49.272Z,2.55
2023-05-19T12:50:16.161Z,2.60
2023-05-19T12:52:45.730Z,2.63
2023-05-19T12:55:12.928Z,2.45
2023-05-19T12:57:41.713Z,2.65
2023-05-19T13:00:30.996Z,2.80
2023-05-19T13:03:05.137Z,2.47
2023-05-19T13:05:38.256Z,2.95
2023-05-19T13:08:04.644Z,2.90
2023-05-19T13:10:32.161Z,2.80
2023-05-19T13:13:00.301Z,3.10
2023-05-19T13:15:31.664Z,2.65
2023-05-19T13:17:58.134Z,2.60
2023-05-19T13:20:26.915Z,2.90
2023-05-19T13:22:55.502Z,2.70
2023-05-19T13:25:22.199Z,3.25
2023-05-19T13:27:49.205Z,3.30
2023-05-19T13:30:19.003Z,3.40
2023-05-19T13:32:45.971Z,3.38
2023-05-19T13:35:13.637Z,3.53
2023-05-19T13:37:41.646Z,3.97
2023-05-19T13:40:09.406Z,2.80
2023-05-19T13:42:36.226Z,2.97
2023-05-19T13:45:03.381Z,3.10
2023-05-19T13:47:30.243Z,3.38
2023-05-19T13:49:56.754Z,3.55
2023-05-19T13:52:23.575Z,3.70
2023-05-19T13:54:50.144Z,3.30
2023-05-19T13:57:16.921Z,3.65
2023-05-19T14:00:00.221Z,8.48
2023-05-19T14:02:28.025Z,6.30
2023-05-19T14:04:54.960Z,3.60
2023-05-19T14:07:21.354Z,3.65
2023-05-19T14:09:47.754Z,3.50
2023-05-19T14:12:14.238Z,3.60
2023-05-19T14:14:40.965Z,3.50
2023-05-19T14:17:07.357Z,3.53
2023-05-19T14:19:33.860Z,3.55
2023-05-19T14:22:00.388Z,3.97
2023-05-19T14:24:26.988Z,3.55
2023-05-19T14:26:53.855Z,3.85
2023-05-19T14:29:20.329Z,4.05
2023-05-19T14:31:47.024Z,3.90
2023-05-19T14:34:17.702Z,4.15
2023-05-19T14:36:44.758Z,4.10
2023-05-19T14:39:12.348Z,4.40
2023-05-19T14:41:38.749Z,4.00
2023-05-19T14:44:05.767Z,4.28
2023-05-19T14:46:32.258Z,4.03
2023-05-19T14:48:59.028Z,4.05
2023-05-19T14:51:25.523Z,4.40
2023-05-19T14:53:51.940Z,4.40
2023-05-19T14:56:18.459Z,4.20
2023-05-19T14:58:45.399Z,4.30
2023-05-19T15:01:11.890Z,3.92
2023-05-19T15:03:38.305Z,4.55
2023-05-19T15:06:09.302Z,6.07
2023-05-19T15:08:37.617Z,4.05
2023-05-19T15:11:04.359Z,3.88
2023-05-19T15:13:30.839Z,4.20
2023-05-19T15:16:12.571Z,4.00
2023-05-19T15:18:42.470Z,3.72
2023-05-19T15:21:09.067Z,3.40
2023-05-19T15:23:35.471Z,3.90
2023-05-19T15:26:01.894Z,8.07
2023-05-19T15:28:28.377Z,5.10
2023-05-19T15:30:54.791Z,4.68
2023-05-19T15:33:21.264Z,4.03
2023-05-19T15:35:51.519Z,3.80
2023-05-19T15:38:21.664Z,3.80
2023-05-19T15:40:48.147Z,3.70
2023-05-19T15:43:14.631Z,3.65
2023-05-19T15:45:41.176Z,3.63
2023-05-19T15:48:07.954Z,3.92
2023-05-19T15:50:34.542Z,4.30
2023-05-19T15:53:01.272Z,4.70
2023-05-19T15:55:27.724Z,4.50
2023-05-19T15:57:54.226Z,4.57
2023-05-19T16:00:20.859Z,4.70
2023-05-19T16:02:47.370Z,4.43
2023-05-19T16:05:13.851Z,4.63
2023-05-19T16:07:41.988Z,4.72
2023-05-19T16:10:08.948Z,5.00
2023-05-19T16:12:36.468Z,5.10
2023-05-19T16:15:03.083Z,4.32
2023-05-19T16:17:29.539Z,4.43
2023-05-19T16:19:55.976Z,5.10
2023-05-19T16:22:24.651Z,4.43
2023-05-19T16:24:51.866Z,4.72
2023-05-19T16:27:18.609Z,4.30
2023-05-19T16:32:11.441Z,4.30
2023-05-19T16:34:38.397Z,3.85
2023-05-19T16:37:04.893Z,3.70
2023-05-19T16:39:31.307Z,4.68
2023-05-19T16:41:57.723Z,4.28
2023-05-19T16:44:24.565Z,3.70
2023-05-19T16:46:51.098Z,3.80
2023-05-19T16:49:17.545Z,3.88
2023-05-19T16:51:44.536Z,4.03
2023-05-19T16:54:11.528Z,4.25
2023-05-19T16:56:38.209Z,9.02
2023-05-19T16:59:04.706Z,7.68
2023-05-19T17:01:31.251Z,4.55
2023-05-19T17:03:57.690Z,3.95
2023-05-19T17:06:24.137Z,4.15
2023-05-19T17:08:50.615Z,3.75
2023-05-19T17:11:17.137Z,3.97
2023-05-19T17:13:43.857Z,3.83
2023-05-19T17:16:10.305Z,3.60
2023-05-19T17:18:37.343Z,4.30
2023-05-19T17:21:05.270Z,3.83
2023-05-19T17:23:32.546Z,4.03
2023-05-19T17:25:59.113Z,4.60
2023-05-19T17:28:25.623Z,6.15
2023-05-19T17:30:52.031Z,4.28
2023-05-19T17:33:18.551Z,4.40
2023-05-19T17:35:44.971Z,3.60
2023-05-19T17:38:11.789Z,3.88
2023-05-19T17:40:39.489Z,3.95
2023-05-19T17:43:08.537Z,3.70
2023-05-19T17:45:34.958Z,3.65
2023-05-19T17:48:01.638Z,3.67
2023-05-19T17:50:28.668Z,3.92
2023-05-19T17:52:56.042Z,3.78
2023-05-19T17:55:24.749Z,4.00
2023-05-19T17:57:51.299Z,3.92
2023-05-19T18:00:18.537Z,3.83
2023-05-19T18:02:45.321Z,5.45
2023-05-19T18:05:12.344Z,4.28
2023-05-19T18:07:39.804Z,4.40
2023-05-19T18:10:07.196Z,3.63
2023-05-19T18:12:33.659Z,4.13
2023-05-19T18:15:00.142Z,4.13
2023-05-19T18:17:26.752Z,4.57
2023-05-19T18:19:54.560Z,4.32
2023-05-19T18:22:21.241Z,4.38
2023-05-19T18:24:47.691Z,4.90
2023-05-19T18:27:14.088Z,4.82
2023-05-19T18:29:40.613Z,4.40
2023-05-19T18:32:07.464Z,9.77
2023-05-19T18:34:34.318Z,8.23
2023-05-19T18:37:00.727Z,7.80
2023-05-19T18:39:29.161Z,5.00
2023-05-19T18:41:55.922Z,4.90
2023-05-19T18:44:22.541Z,4.78
2023-05-19T18:46:48.995Z,4.65
2023-05-19T18:49:15.733Z,4.90
2023-05-19T18:51:42.450Z,4.82
2023-05-19T18:54:09.031Z,4.90
2023-05-19T18:56:35.601Z,4.90
2023-05-19T18:59:02.028Z,4.85
2023-05-19T19:01:28.594Z,4.75
2023-05-19T19:03:55.081Z,5.28
2023-05-19T19:06:22.971Z,6.20
2023-05-19T19:08:49.774Z,5.75
2023-05-19T19:11:16.341Z,5.32
2023-05-19T19:13:43.542Z,5.07
2023-05-19T19:16:10.155Z,4.88
2023-05-19T19:18:36.735Z,4.80
2023-05-19T19:21:05.490Z,5.05
2023-05-19T19:23:32.449Z,6.40
2023-05-19T19:25:58.857Z,6.45
2023-05-19T19:28:25.401Z,9.82
2023-05-19T19:30:51.942Z,22.95
2023-05-19T19:33:18.541Z,6.30
2023-05-19T19:35:48.065Z,5.30
2023-05-19T19:38:14.688Z,5.90
2023-05-19T19:40:41.344Z,5.50
2023-05-19T19:43:07.797Z,5.88
2023-05-19T19:45:34.893Z,6.65
2023-05-19T19:48:01.691Z,6.70
2023-05-19T19:50:28.270Z,6.30
2023-05-19T19:52:54.674Z,6.78
2023-05-19T19:55:21.094Z,7.22
2023-05-19T19:57:49.193Z,8.50
2023-05-19T20:00:16.142Z,8.10
2023-05-19T20:02:59.540Z,7.10
2023-05-19T20:05:29.032Z,7.15
2023-05-19T20:07:55.458Z,8.38
2023-05-19T20:10:21.846Z,7.78
2023-05-19T20:12:48.395Z,8.70
2023-05-19T20:15:15.139Z,7.88
2023-05-19T20:17:41.585Z,7.82
2023-05-19T20:20:10.712Z,8.18
2023-05-19T20:22:37.142Z,7.97
2023-05-19T20:25:03.852Z,8.18
2023-05-19T20:27:30.268Z,7.50
2023-05-19T20:29:56.678Z,7.93
2023-05-19T20:32:23.142Z,8.02
2023-05-19T20:34:49.587Z,9.02
2023-05-19T20:37:17.290Z,10.95
2023-05-19T20:39:43.787Z,8.95
2023-05-19T20:42:11.220Z,10.00
2023-05-19T20:44:37.635Z,8.38
2023-05-19T20:47:04.338Z,10.02
2023-05-19T20:49:30.813Z,9.07
2023-05-19T20:51:57.222Z,9.25
2023-05-19T20:54:23.610Z,10.23
2023-05-19T20:56:51.652Z,9.70
2023-05-19T20:59:18.145Z,9.45
2023-05-19T21:01:45.667Z,9.02
2023-05-19T21:04:12.182Z,8.98
2023-05-19T21:06:38.771Z,9.07
2023-05-19T21:09:06.740Z,9.07
2023-05-19T21:11:34.057Z,9.20
2023-05-19T21:14:06.189Z,9.30
2023-05-19T21:16:33.867Z,8.88
2023-05-19T21:19:01.721Z,8.75
2023-05-19T21:21:28.378Z,8.43
2023-05-19T21:23:55.100Z,8.80
2023-05-19T21:26:22.006Z,8.80
2023-05-19T21:28:48.497Z,8.60
2023-05-19T21:31:15.242Z,8.73
2023-05-19T21:33:41.714Z,9.13
2023-05-19T21:36:08.219Z,9.18
2023-05-19T21:38:34.640Z,8.82
2023-05-19T21:41:01.067Z,9.05
2023-05-19T21:43:27.519Z,9.25
2023-05-19T21:45:54.057Z,9.10
2023-05-19T21:48:21.370Z,8.85
2023-05-19T21:50:53.445Z,8.80
2023-05-19T21:53:20.242Z,8.73
2023-05-19T21:55:46.778Z,9.00
2023-05-19T21:58:13.389Z,9.35
2023-05-19T22:00:40.466Z,9.18
2023-05-19T22:03:07.341Z,9.68
2023-05-19T22:05:35.148Z,9.38
2023-05-19T22:08:01.660Z,8.90
2023-05-19T22:10:28.067Z,9.55
2023-05-19T22:12:54.749Z,11.13
2023-05-19T22:15:21.168Z,11.68
2023-05-19T22:17:47.673Z,9.50
2023-05-19T22:20:14.108Z,9.38
2023-05-19T22:22:40.770Z,9.43
2023-05-19T22:25:07.804Z,8.85
2023-05-19T22:27:34.301Z,9.57
2023-05-19T22:30:00.937Z,9.00
2023-05-19T22:32:27.442Z,9.60
2023-05-19T22:34:54.256Z,8.73
2023-05-19T22:37:23.025Z,10.07
2023-05-19T22:39:49.426Z,9.30
2023-05-19T22:42:15.971Z,11.02
2023-05-19T22:44:43.147Z,9.05
2023-05-19T22:47:13.343Z,8.80
2023-05-19T22:49:40.876Z,9.73
2023-05-19T22:52:10.405Z,10.02
2023-05-19T22:54:37.210Z,10.20
2023-05-19T22:57:03.869Z,9.52
2023-05-19T22:59:30.513Z,9.63
2023-05-19T23:01:56.960Z,9.43
2023-05-19T23:04:23.495Z,9.85
2023-05-19T23:06:50.450Z,10.20
2023-05-19T23:09:17.921Z,9.57
2023-05-19T23:11:44.797Z,9.63
2023-05-19T23:14:11.374Z,9.60
2023-05-19T23:16:37.848Z,11.18
2023-05-19T23:19:04.298Z,9.65
2023-05-19T23:21:31.577Z,11.38
2023-05-19T23:23:58.229Z,10.70
2023-05-19T23:26:24.856Z,10.25
2023-05-19T23:28:51.286Z,11.00
2023-05-19T23:31:17.738Z,11.82
2023-05-19T23:33:44.299Z,11.48
2023-05-19T23:36:10.960Z,12.40
2023-05-19T23:38:37.611Z,11.80
2023-05-19T23:41:05.083Z,12.90
2023-05-19T23:43:34.286Z,12.48
2023-05-19T23:46:00.952Z,12.07
2023-05-19T23:48:31.264Z,11.63
2023-05-19T23:50:58.279Z,11.65
2023-05-19T23:53:25.305Z,11.85
2023-05-19T23:55:51.794Z,12.05
2023-05-19T23:58:18.424Z,11.27
